Time;durP1;ratioP1;P1;durP2;ratioP2;P2;SDS_P1;SDS_P2;PMS_P1;PMS_P2;Temp;Humidity;BMP_temperature;BMP_pressure;BME280_temperature;BME280_humidity;BME280_pressure;Samples;Min_cycle;Max_cycle;Signal;HPM_P1;HPM_P2
2020/12/04 00:01:10;;;;;;;18.00;11.30;;;5.10;77.40;;;4.65;74.12;95869.72;5060798;28;20739;-72
2020/12/04 00:03:38;;;;;;;18.67;11.27;;;5.10;77.20;;;4.67;75.41;95858.31;5074163;28;20628;-73
2020/12/04 00:06:05;;;;;;;19.97;12.03;;;5.10;77.80;;;4.65;74.90;95860.19;5067449;28;20734;-72
2020/12/04 00:08:33;;;;;;;19.10;10.97;;;5.10;78.10;;;4.63;75.70;95851.78;5069554;28;20621;-72
2020/12/04 00:11:01;;;;;;;17.10;11.67;;;5.10;78.30;;;4.63;76.23;95850.94;5065930;28;20657;-73
2020/12/04 00:13:29;;;;;;;21.83;11.63;;;5.10;78.60;;;4.59;75.49;95845.22;5071473;28;20674;-72
2020/12/04 00:15:56;;;;;;;21.20;13.20;;;5.00;78.80;;;4.61;76.31;95850.25;5059925;28;20686;-73
2020/12/04 00:18:24;;;;;;;20.27;11.77;;;5.10;79.20;;;4.60;75.43;95833.97;5063216;28;20624;-73
2020/12/04 00:20:51;;;;;;;18.20;12.33;;;5.00;79.00;;;4.60;76.89;95836.53;5055982;28;21183;-73
2020/12/04 00:23:19;;;;;;;19.57;12.47;;;5.10;79.80;;;4.61;76.36;95830.41;5068382;28;20635;-72
2020/12/04 00:25:46;;;;;;;19.40;12.40;;;5.10;80.00;;;4.59;76.54;95822.00;5055531;28;20743;-73
2020/12/04 00:28:15;;;;;;;21.13;12.13;;;5.10;79.90;;;4.60;75.66;95830.53;5060059;28;20714;-73
2020/12/04 00:30:42;;;;;;;18.37;11.47;;;5.10;79.60;;;4.61;75.87;95822.66;5052596;28;20624;-73
2020/12/04 00:33:10;;;;;;;17.27;10.30;;;5.10;78.80;;;4.65;75.28;95823.25;5054654;28;22105;-73
2020/12/04 00:35:37;;;;;;;17.10;11.20;;;5.10;78.40;;;4.70;75.28;95809.03;5069821;28;20628;-73
2020/12/04 00:38:05;;;;;;;18.57;11.20;;;5.20;79.10;;;4.69;76.66;95789.31;5065446;28;20624;-72
2020/12/04 00:40:32;;;;;;;19.50;12.57;;;5.20;79.20;;;4.70;76.43;95765.94;5054015;28;20720;-73
2020/12/04 00:43:00;;;;;;;19.33;11.87;;;5.10;79.30;;;4.56;74.62;95754.34;5057926;28;20667;-72
2020/12/04 00:45:28;;;;;;;18.23;11.07;;;5.10;78.00;;;4.58;75.34;95730.03;5073491;28;21217;-72
2020/12/04 00:47:56;;;;;;;17.20;10.70;;;5.10;77.70;;;4.59;75.80;95707.63;5065103;28;20731;-73
2020/12/04 00:50:24;;;;;;;17.60;11.90;;;5.10;77.80;;;4.58;75.70;95696.47;5052269;28;20734;-72
2020/12/04 00:52:53;;;;;;;14.70;9.97;;;5.10;78.20;;;4.56;74.42;95695.00;5052966;28;21211;-73
2020/12/04 00:55:21;;;;;;;15.00;9.10;;;5.00;78.00;;;4.47;74.16;95669.94;5069849;28;20627;-73
2020/12/04 00:57:50;;;;;;;14.17;9.17;;;5.00;76.80;;;4.53;74.39;95683.16;5071709;28;21209;-73
2020/12/04 01:00:19;;;;;;;15.60;9.77;;;5.00;76.50;;;4.58;75.24;95690.50;5071198;28;20667;-73
2020/12/04 01:02:47;;;;;;;15.33;8.50;;;5.00;77.10;;;4.59;74.04;95692.97;5071083;28;20629;-73
2020/12/04 01:05:15;;;;;;;14.20;8.53;;;5.00;77.50;;;4.57;74.24;95702.59;5066539;28;20701;-72
2020/12/04 01:07:42;;;;;;;15.27;9.27;;;5.00;77.30;;;4.58;74.44;95750.66;5057347;28;20633;-73
2020/12/04 01:10:10;;;;;;;16.23;10.17;;;5.10;77.80;;;4.43;77.50;95745.94;5067622;28;21020;-72
2020/12/04 01:12:42;;;;;;;18.40;10.20;;;4.90;79.20;;;4.40;77.04;95739.28;5067800;28;21238;-73
2020/12/04 01:15:10;;;;;;;16.63;10.33;;;4.80;79.40;;;4.47;75.44;95737.03;5055068;28;20649;-73
2020/12/04 01:17:38;;;;;;;14.57;9.57;;;4.90;78.70;;;4.53;75.53;95727.00;5068181;28;21030;-73
2020/12/04 01:20:07;;;;;;;15.57;9.60;;;5.00;78.20;;;4.62;75.17;95712.53;5053225;28;20613;-73
2020/12/04 01:22:34;;;;;;;16.73;9.90;;;5.00;77.80;;;4.63;75.59;95706.41;5057953;28;20626;-73
2020/12/04 01:25:02;;;;;;;14.70;9.53;;;5.10;78.00;;;4.67;75.60;95708.63;5053378;28;21243;-73
2020/12/04 01:27:29;;;;;;;14.93;9.97;;;5.10;78.30;;;4.67;75.85;95698.28;5053981;28;20660;-73
2020/12/04 01:29:57;;;;;;;15.17;10.90;;;5.10;78.70;;;4.72;75.26;95701.28;5065742;28;20681;-73
2020/12/04 01:32:24;;;;;;;16.80;10.40;;;5.10;78.70;;;4.74;75.36;95689.91;5070413;28;20811;-73
2020/12/04 01:34:52;;;;;;;15.63;9.90;;;5.20;78.80;;;4.78;75.04;95688.72;5052610;28;20633;-73
2020/12/04 01:37:20;;;;;;;14.60;9.23;;;5.20;78.80;;;4.83;74.48;95688.31;5055146;28;20651;-72
2020/12/04 01:39:48;;;;;;;12.90;8.37;;;5.30;78.10;;;4.89;74.77;95683.44;5052867;28;20717;-74
2020/12/04 01:42:15;;;;;;;14.67;9.30;;;5.30;77.40;;;4.97;73.65;95677.66;5053906;28;20624;-73
2020/12/04 01:44:43;;;;;;;17.30;10.93;;;5.40;76.20;;;4.99;74.79;95673.16;5069680;28;20631;-73
2020/12/04 01:47:10;;;;;;;19.03;11.77;;;5.40;77.80;;;4.95;75.44;95674.38;5070318;28;20703;-72
2020/12/04 01:49:38;;;;;;;18.80;12.00;;;5.40;78.00;;;4.94;75.92;95659.81;5052582;28;20632;-73
2020/12/04 01:52:05;;;;;;;19.93;10.63;;;5.40;78.40;;;4.88;75.59;95656.00;5052839;28;20710;-74
2020/12/04 01:54:34;;;;;;;17.07;10.80;;;5.40;78.60;;;4.87;75.44;95658.69;5068725;28;20665;-73
2020/12/04 01:57:02;;;;;;;17.47;10.47;;;5.30;78.70;;;4.86;76.26;95675.16;5071030;28;20698;-72
2020/12/04 01:59:29;;;;;;;16.30;10.30;;;5.40;78.90;;;4.84;75.41;95672.72;5055909;28;20643;-73
2020/12/04 02:02:07;;;;;;;16.73;10.40;;;5.30;78.60;;;4.86;74.71;95675.97;5065450;28;20616;-74
2020/12/04 02:04:35;;;;;;;15.03;10.23;;;5.40;77.90;;;4.83;75.41;95660.75;5052594;28;20637;-73
2020/12/04 02:07:07;;;;;;;18.57;11.53;;;5.30;78.60;;;4.76;76.53;95656.22;5062094;28;20651;-73
2020/12/04 02:09:46;;;;;;;14.90;9.67;;;5.20;78.70;;;4.66;76.49;95659.72;5057673;28;20635;-73
2020/12/04 02:12:17;;;;;;;18.07;11.23;;;5.10;79.10;;;4.67;76.55;95657.00;5057315;28;20677;-74
2020/12/04 02:14:47;;;;;;;14.33;9.73;;;5.10;79.60;;;4.70;76.53;95661.91;5052545;28;20634;-73
2020/12/04 02:17:15;;;;;;;17.33;11.20;;;5.20;80.00;;;4.71;76.97;95648.88;5052803;28;20650;-71
2020/12/04 02:19:44;;;;;;;16.67;9.90;;;5.20;80.20;;;4.71;77.37;95642.91;5053110;28;21230;-74
2020/12/04 02:22:13;;;;;;;18.27;10.70;;;5.20;80.30;;;4.69;78.00;95639.59;5053410;28;20636;-73
2020/12/04 02:24:41;;;;;;;17.20;10.10;;;5.10;80.80;;;4.70;77.58;95621.41;5050859;28;20715;-72
2020/12/04 02:27:09;;;;;;;20.90;10.60;;;5.10;81.50;;;4.73;78.07;95623.72;5069274;28;21191;-74
2020/12/04 02:29:40;;;;;;;16.93;9.97;;;5.20;80.90;;;4.70;74.90;95616.25;5069627;28;20988;-73
2020/12/04 02:32:11;;;;;;;13.97;8.67;;;5.10;77.40;;;4.74;76.02;95620.22;5058544;28;20657;-73
2020/12/04 02:34:40;;;;;;;14.23;8.77;;;5.20;78.70;;;4.85;74.81;95614.13;5068746;28;21027;-73
2020/12/04 02:37:08;;;;;;;14.27;9.00;;;5.20;77.70;;;4.87;75.44;95605.31;5052155;28;20644;-73
2020/12/04 02:39:37;;;;;;;14.30;8.60;;;5.30;78.70;;;4.88;73.95;95611.31;5056501;28;20627;-74
2020/12/04 02:42:06;;;;;;;11.40;7.03;;;5.30;77.60;;;4.93;74.72;95604.81;5071412;28;21228;-73
2020/12/04 02:44:33;;;;;;;13.37;7.60;;;5.40;77.40;;;4.97;72.02;95605.34;5051399;28;20639;-73
2020/12/04 02:47:01;;;;;;;15.27;8.70;;;5.40;75.90;;;5.03;74.07;95597.88;5056498;28;20634;-73
2020/12/04 02:49:29;;;;;;;19.93;10.37;;;5.50;76.40;;;5.05;74.35;95600.31;5065113;28;20637;-74
2020/12/04 02:51:57;;;;;;;19.40;10.73;;;5.50;77.60;;;5.03;76.21;95595.28;5056204;28;20664;-72
2020/12/04 02:54:25;;;;;;;15.30;10.80;;;5.50;79.20;;;5.00;75.33;95587.81;5056716;28;21057;-73
2020/12/04 02:56:53;;;;;;;16.57;9.90;;;5.50;78.50;;;4.98;76.13;95591.50;5053065;28;20624;-74
2020/12/04 02:59:21;;;;;;;18.07;10.87;;;5.50;79.60;;;5.01;76.59;95596.41;5067795;28;21316;-74
2020/12/04 03:01:48;;;;;;;18.43;11.57;;;5.50;79.20;;;4.99;76.40;95593.09;5074580;28;20651;-74
2020/12/04 03:04:16;;;;;;;17.53;11.20;;;5.50;79.30;;;4.97;77.13;95588.06;5060066;28;20642;-73
2020/12/04 03:06:43;;;;;;;18.60;11.03;;;5.50;79.50;;;4.97;76.92;95595.81;5054979;28;20631;-74
2020/12/04 03:09:11;;;;;;;16.40;10.27;;;5.50;79.80;;;4.98;76.25;95586.34;5069123;28;20666;-74
2020/12/04 03:11:38;;;;;;;16.80;9.23;;;5.50;79.80;;;5.02;76.31;95577.34;5075030;28;21088;-74
2020/12/04 03:14:07;;;;;;;18.90;11.07;;;5.50;79.00;;;5.05;74.70;95580.50;5066936;28;20677;-73
2020/12/04 03:16:34;;;;;;;17.10;10.40;;;5.50;78.10;;;4.95;76.58;95579.66;5070817;28;20647;-74
2020/12/04 03:19:02;;;;;;;18.70;11.10;;;5.40;78.90;;;4.82;75.85;95573.09;5064714;28;21177;-73
2020/12/04 03:21:30;;;;;;;16.33;10.10;;;5.20;79.40;;;4.82;77.59;95576.50;5075441;28;20643;-74
2020/12/04 03:23:59;;;;;;;16.13;10.33;;;5.30;80.20;;;4.85;77.51;95583.16;5068406;28;20624;-74
2020/12/04 03:26:26;;;;;;;17.13;11.17;;;5.30;80.50;;;4.84;77.53;95564.28;5070150;28;20660;-74
2020/12/04 03:28:54;;;;;;;18.30;11.50;;;5.30;80.70;;;4.84;77.83;95559.13;5064393;28;20999;-74
2020/12/04 03:31:23;;;;;;;20.27;11.73;;;5.30;80.70;;;4.84;76.83;95555.72;5058586;28;20648;-75
2020/12/04 03:33:50;;;;;;;19.83;10.60;;;5.30;80.70;;;4.77;77.44;95563.16;5055560;28;20679;-74
2020/12/04 03:36:17;;;;;;;16.27;10.10;;;5.30;80.80;;;4.77;76.75;95545.09;5059216;28;20641;-75
2020/12/04 03:38:45;;;;;;;15.30;10.27;;;5.20;80.30;;;4.84;77.12;95576.34;5070052;28;20627;-74
2020/12/04 03:41:13;;;;;;;19.20;10.97;;;5.30;80.80;;;4.78;77.72;95582.03;5065987;28;20636;-73
2020/12/04 03:43:40;;;;;;;17.53;10.50;;;5.30;80.90;;;4.72;76.94;95573.09;5060841;28;20659;-74
2020/12/04 03:46:09;;;;;;;18.23;11.93;;;5.30;80.90;;;4.73;78.10;95573.88;5067722;28;20739;-74
2020/12/04 03:48:38;;;;;;;17.80;10.37;;;5.30;81.10;;;4.74;77.81;95580.69;5063544;28;20626;-74
2020/12/04 03:51:06;;;;;;;18.80;11.30;;;5.20;81.10;;;4.71;78.30;95583.53;5056120;28;20648;-74
2020/12/04 03:53:33;;;;;;;17.37;11.07;;;5.10;80.90;;;4.68;78.31;95588.16;5074018;28;21058;-74
2020/12/04 03:56:01;;;;;;;16.80;10.40;;;5.10;81.40;;;4.69;77.83;95593.16;5061061;28;20694;-74
2020/12/04 03:58:29;;;;;;;16.97;10.63;;;5.10;81.60;;;4.68;77.83;95601.06;5066311;28;20628;-74
2020/12/04 04:00:56;;;;;;;18.13;11.70;;;5.20;82.00;;;4.68;78.54;95601.06;5054267;28;20645;-74
2020/12/04 04:03:24;;;;;;;21.10;11.37;;;5.10;81.80;;;4.69;78.51;95601.72;5063334;28;21245;-74
2020/12/04 04:05:53;;;;;;;15.73;10.27;;;5.20;82.10;;;4.65;77.75;95596.97;5054269;28;20614;-74
2020/12/04 04:08:20;;;;;;;18.57;11.60;;;5.10;81.70;;;4.68;78.83;95609.59;5071164;28;20804;-74
2020/12/04 04:10:48;;;;;;;19.00;11.70;;;5.10;82.20;;;4.72;77.94;95600.63;5074381;28;20627;-74
2020/12/04 04:13:15;;;;;;;18.07;11.10;;;5.20;82.30;;;4.70;77.71;95599.97;5069958;28;20769;-73
2020/12/04 04:15:43;;;;;;;16.47;11.37;;;5.10;82.50;;;4.71;78.84;95625.63;5073594;28;20663;-74
2020/12/04 04:18:10;;;;;;;19.47;11.73;;;5.10;82.00;;;4.71;77.88;95627.41;5071004;28;20639;-73
2020/12/04 04:20:38;;;;;;;18.63;11.17;;;5.20;82.00;;;4.73;78.70;95641.81;5062962;28;20642;-74
2020/12/04 04:23:06;;;;;;;18.57;11.93;;;5.20;82.00;;;4.74;77.41;95619.41;5054116;28;20620;-73
2020/12/04 04:25:34;;;;;;;15.50;10.93;;;5.20;81.50;;;4.70;78.44;95639.47;5052141;28;20729;-73
2020/12/04 04:28:01;;;;;;;17.63;10.30;;;5.20;81.70;;;4.72;78.27;95624.69;5057421;28;20639;-74
2020/12/04 04:30:29;;;;;;;17.63;10.67;;;5.20;81.90;;;4.75;78.02;95628.75;5073899;28;20673;-74
2020/12/04 04:32:56;;;;;;;16.87;10.37;;;5.20;82.00;;;4.76;78.68;95623.47;5061168;28;20746;-74
2020/12/04 04:35:24;;;;;;;16.90;11.00;;;5.20;81.80;;;4.75;78.11;95628.75;5061078;28;20632;-72
2020/12/04 04:37:51;;;;;;;19.17;12.73;;;5.20;81.90;;;4.75;79.05;95633.94;5056926;28;20750;-74
2020/12/04 04:40:19;;;;;;;20.30;11.83;;;5.20;82.20;;;4.74;78.49;95620.22;5062656;28;20630;-74
2020/12/04 04:42:47;;;;;;;18.17;11.60;;;5.10;82.00;;;4.73;78.43;95618.56;5054526;28;20786;-72
2020/12/04 04:45:17;;;;;;;20.50;11.87;;;5.10;82.50;;;4.75;78.43;95603.78;5055810;28;21016;-73
2020/12/04 04:47:46;;;;;;;19.70;11.60;;;5.20;83.40;;;4.72;79.68;95598.91;5062737;28;20627;-73
2020/12/04 04:50:14;;;;;;;20.60;10.87;;;5.20;82.80;;;4.66;80.08;95597.78;5056690;28;20711;-73
2020/12/04 04:52:41;;;;;;;14.23;9.97;;;5.10;83.10;;;4.65;79.79;95596.97;5056979;28;20676;-73
2020/12/04 04:55:09;;;;;;;15.03;10.10;;;5.10;83.20;;;4.68;79.24;95600.09;5053937;28;20636;-74
2020/12/04 04:57:38;;;;;;;16.97;9.83;;;5.10;83.30;;;4.68;79.02;95607.84;5052331;28;21167;-73
2020/12/04 05:00:05;;;;;;;16.30;10.90;;;5.10;83.00;;;4.73;79.88;95605.66;5053374;28;20723;-74
2020/12/04 05:02:33;;;;;;;16.37;10.73;;;5.20;83.10;;;4.77;79.35;95614.78;5064635;28;20694;-73
2020/12/04 05:05:00;;;;;;;15.00;8.93;;;5.20;83.20;;;4.77;78.63;95616.56;5068812;28;21181;-72
2020/12/04 05:07:30;;;;;;;14.40;9.83;;;5.30;83.30;;;4.83;79.33;95614.28;5062277;28;20747;-73
2020/12/04 05:10:11;;;;;;;17.50;11.27;;;5.30;84.00;;;4.82;78.16;95616.97;5073296;28;20730;-73
2020/12/04 05:12:41;;;;;;;15.67;10.17;;;5.30;82.80;;;4.84;78.13;95628.00;5062327;28;20653;-72
2020/12/04 05:15:22;;;;;;;17.30;10.20;;;5.30;82.90;;;4.85;79.10;95627.84;5052936;28;20747;-73
2020/12/04 05:18:17;;;;;;;16.13;9.80;;;5.30;82.90;;;4.86;78.77;95639.03;5058004;28;20739;-74
2020/12/04 05:20:49;;;;;;;17.37;11.03;;;5.30;82.80;;;4.88;79.57;95644.84;5058316;28;20647;-72
2020/12/04 05:23:18;;;;;;;16.13;10.67;;;5.40;83.00;;;4.89;78.58;95636.97;5068954;28;20686;-71
2020/12/04 05:25:48;;;;;;;19.07;10.17;;;5.40;82.80;;;4.91;79.59;95634.28;5072648;28;21178;-72
2020/12/04 05:28:19;;;;;;;14.40;10.40;;;5.40;83.00;;;4.92;79.27;95623.81;5068312;28;20738;-72
2020/12/04 05:30:50;;;;;;;19.23;10.90;;;5.40;82.60;;;4.91;79.46;95613.63;5066145;28;20731;-72
2020/12/04 05:33:18;;;;;;;21.97;11.70;;;5.40;82.40;;;4.90;77.98;95606.81;5052279;28;20772;-72
2020/12/04 05:35:52;;;;;;;15.23;10.97;;;5.40;82.40;;;4.85;79.20;95608.97;5055782;28;20681;-71
2020/12/04 05:38:20;;;;;;;16.73;10.63;;;5.40;82.50;;;4.87;78.60;95612.22;5053934;28;20735;-72
2020/12/04 05:40:52;;;;;;;15.70;10.00;;;5.30;83.00;;;4.88;79.82;95612.09;5056167;28;20660;-72
2020/12/04 05:43:32;;;;;;;14.67;9.37;;;5.40;84.00;;;4.95;78.26;95602.09;5069414;28;21006;-71
2020/12/04 05:46:17;;;;;;;15.67;10.00;;;5.50;83.10;;;4.99;78.75;95591.38;5053106;28;20734;-71
2020/12/04 05:48:56;;;;;;;13.00;8.77;;;5.50;82.60;;;4.93;78.63;95585.88;5052393;28;20711;-71
2020/12/04 05:51:27;;;;;;;14.43;9.07;;;5.40;82.30;;;4.96;79.05;95570.97;5056330;28;20627;-74
2020/12/04 05:53:55;;;;;;;12.90;7.43;;;5.40;82.50;;;5.00;78.14;95571.50;5072462;28;20596;-79
2020/12/04 05:56:24;;;;;;;11.13;7.60;;;5.50;82.40;;;5.04;78.98;95567.72;5062999;28;20732;-73
2020/12/04 05:58:55;;;;;;;12.57;8.07;;;5.50;82.30;;;5.10;77.85;95573.16;5063633;28;20628;-72
2020/12/04 06:01:24;;;;;;;13.23;8.73;;;5.50;82.40;;;5.12;78.48;95565.28;5065869;28;20723;-72
2020/12/04 06:03:53;;;;;;;14.80;10.50;;;5.60;82.80;;;5.12;78.95;95560.91;5051301;28;20711;-72
2020/12/04 06:06:26;;;;;;;11.80;8.77;;;5.60;82.80;;;5.14;78.80;95564.19;5059195;28;21186;-72
2020/12/04 06:08:57;;;;;;;15.90;9.87;;;5.60;82.40;;;5.12;78.09;95565.28;5071100;28;21412;-73
2020/12/04 06:11:31;;;;;;;15.57;11.13;;;5.60;82.60;;;5.14;79.05;95567.59;5069403;28;20643;-72
2020/12/04 06:13:59;;;;;;;16.07;10.00;;;5.60;83.00;;;5.13;79.36;95561.72;5069296;28;20643;-72
2020/12/04 06:16:27;;;;;;;13.70;9.70;;;5.60;82.90;;;5.11;78.76;95563.63;5053690;28;21243;-72
2020/12/04 06:18:54;;;;;;;16.50;10.90;;;5.60;83.40;;;4.98;77.72;95550.19;5071606;28;20723;-72
2020/12/04 06:21:47;;;;;;;16.10;10.00;;;5.50;82.00;;;4.92;78.33;95545.56;5069592;28;20630;-72
2020/12/04 06:24:14;;;;;;;18.00;12.37;;;5.40;82.60;;;4.95;79.46;95553.03;5068162;28;20628;-72
2020/12/04 06:26:47;;;;;;;15.73;10.47;;;5.40;83.90;;;4.95;79.06;95564.16;5058689;28;20637;-75
2020/12/04 06:29:15;;;;;;;16.00;10.80;;;5.40;83.50;;;4.97;79.34;95571.78;5050801;28;21257;-71
2020/12/04 06:31:43;;;;;;;18.30;11.30;;;5.50;83.90;;;4.96;79.42;95546.91;5054475;28;20731;-72
2020/12/04 06:34:16;;;;;;;15.00;9.90;;;5.50;83.70;;;4.93;79.13;95550.59;5058046;28;20727;-72
2020/12/04 06:36:45;;;;;;;16.70;10.67;;;5.40;83.80;;;4.94;79.06;95535.91;5057282;28;20759;-71
2020/12/04 06:39:30;;;;;;;17.70;10.77;;;5.40;84.10;;;4.96;80.08;95529.66;5070834;28;20704;-72
2020/12/04 06:41:58;;;;;;;13.80;9.30;;;5.50;85.20;;;4.90;79.57;95516.44;5069582;28;20658;-72
2020/12/04 06:44:28;;;;;;;17.13;10.60;;;5.40;83.50;;;4.95;78.67;95507.38;5071231;28;20649;-71
2020/12/04 06:46:59;;;;;;;16.30;11.00;;;5.40;83.70;;;4.92;79.84;95512.00;5064893;28;20715;-72
2020/12/04 06:49:37;;;;;;;15.20;9.90;;;5.40;83.80;;;4.91;79.96;95513.72;5074922;28;20599;-71
2020/12/04 06:52:10;;;;;;;21.27;11.87;;;5.40;84.00;;;4.92;80.72;95522.31;5060970;28;20656;-71
2020/12/04 06:54:40;;;;;;;17.83;11.23;;;5.40;84.60;;;4.94;79.51;95547.03;5060061;28;21238;-71
2020/12/04 06:57:09;;;;;;;15.13;10.57;;;5.40;85.50;;;4.97;79.42;95569.19;5073507;28;20628;-71
2020/12/04 06:59:40;;;;;;;17.53;10.60;;;5.40;84.40;;;4.94;80.42;95566.88;5070600;28;20628;-71
2020/12/04 07:02:10;;;;;;;13.60;9.33;;;5.40;84.20;;;4.95;79.85;95560.78;5056884;28;20615;-71
2020/12/04 07:04:41;;;;;;;16.57;10.03;;;5.50;84.10;;;4.96;78.93;95542.56;5038239;28;20720;-71
2020/12/04 07:07:12;;;;;;;16.73;10.60;;;5.50;83.70;;;4.95;79.23;95547.88;5065202;28;20660;-72
2020/12/04 07:09:43;;;;;;;17.67;11.30;;;5.40;83.80;;;4.95;79.87;95546.09;5070740;28;20663;-71
2020/12/04 07:12:15;;;;;;;15.97;9.60;;;5.40;83.70;;;4.96;79.17;95554.66;5064251;28;20659;-71
2020/12/04 07:14:49;;;;;;;17.33;10.93;;;5.40;84.00;;;5.00;79.67;95550.84;5059654;28;21091;-71
2020/12/04 07:17:18;;;;;;;15.87;10.30;;;5.50;84.40;;;5.05;79.64;95541.78;5063656;28;20727;-72
2020/12/04 07:19:47;;;;;;;15.97;10.93;;;5.50;84.30;;;5.07;79.31;95532.13;5072131;28;20658;-77
2020/12/04 07:22:16;;;;;;;16.40;9.47;;;5.50;84.40;;;5.03;79.89;95529.94;5063259;28;21043;-71
2020/12/04 07:24:44;;;;;;;18.10;12.50;;;5.50;84.00;;;5.02;78.85;95521.38;5058896;28;20723;-71
2020/12/04 07:27:14;;;;;;;13.50;9.50;;;5.50;83.20;;;5.07;78.24;95518.41;5063992;28;21253;-70
2020/12/04 07:29:42;;;;;;;16.10;9.73;;;5.50;83.20;;;5.06;79.62;95519.34;5061847;28;20659;-71
2020/12/04 07:32:11;;;;;;;19.90;13.20;;;5.50;83.20;;;5.11;80.00;95535.22;5068461;28;20758;-70
2020/12/04 07:34:39;;;;;;;16.90;10.67;;;5.50;83.80;;;5.11;79.26;95542.97;5057628;28;20712;-72
2020/12/04 07:37:10;;;;;;;16.45;10.80;;;5.60;84.20;;;5.14;79.04;95565.00;5053662;28;21116;-75
2020/12/04 07:39:40;;;;;;;16.83;11.57;;;5.60;84.20;;;5.13;79.52;95563.38;5070193;28;20225;-69
2020/12/04 07:42:11;;;;;;;17.87;11.43;;;5.60;84.10;;;5.15;79.14;95571.78;5073871;28;20639;-77
2020/12/04 07:44:40;;;;;;;16.97;10.30;;;5.60;84.70;;;5.13;79.33;95567.72;5068841;28;21279;-76
2020/12/04 07:47:13;;;;;;;16.60;10.90;;;5.60;83.60;;;5.14;79.33;95569.34;5067852;28;20664;-75
2020/12/04 07:49:45;;;;;;;15.23;10.10;;;5.60;84.10;;;5.17;80.64;95567.31;5061826;28;20668;-72
2020/12/04 07:52:20;;;;;;;16.27;11.40;;;5.60;84.50;;;5.23;80.31;95553.88;5057187;28;20671;-73
2020/12/04 07:54:50;;;;;;;14.47;10.40;;;5.70;84.90;;;5.25;80.61;95554.56;5068364;28;20611;-71
2020/12/04 07:57:24;;;;;;;17.73;10.73;;;5.70;84.70;;;5.30;79.26;95554.94;5066406;28;20643;-72
2020/12/04 07:59:55;;;;;;;32.80;18.80;;;5.80;84.60;;;5.34;79.90;95564.06;5074185;28;21298;-73
2020/12/04 08:02:26;;;;;;;14.73;9.27;;;5.80;84.60;;;5.32;79.35;95541.91;5069317;28;20639;-73
2020/12/04 08:04:55;;;;;;;16.43;10.60;;;5.70;84.00;;;5.29;78.69;95544.75;5069139;28;20612;-73
2020/12/04 08:07:29;;;;;;;15.37;9.80;;;5.70;83.50;;;5.28;79.83;95543.94;5064009;28;20674;-73
2020/12/04 08:09:59;;;;;;;14.33;9.83;;;5.70;83.80;;;5.31;78.90;95535.94;5071731;28;20631;-73
2020/12/04 08:12:30;;;;;;;16.50;10.77;;;5.70;83.60;;;5.34;79.14;95535.66;5069271;28;20651;-73
2020/12/04 08:15:00;;;;;;;18.03;11.57;;;5.80;83.60;;;5.39;79.22;95532.66;5066869;28;20632;-73
2020/12/04 08:17:31;;;;;;;17.90;12.03;;;5.80;83.90;;;5.45;80.23;95530.34;5060259;28;20668;-71
2020/12/04 08:20:00;;;;;;;17.67;12.73;;;5.90;84.50;;;5.53;78.96;95511.56;5050715;28;20640;-71
2020/12/04 08:22:29;;;;;;;17.10;12.33;;;5.90;84.20;;;5.56;79.20;95530.19;5069383;28;20704;-71
2020/12/04 08:25:05;;;;;;;17.40;11.77;;;6.00;84.50;;;5.60;79.05;95532.34;5060576;28;20632;-72
2020/12/04 08:27:34;;;;;;;16.70;11.00;;;6.00;84.40;;;5.67;79.24;95520.53;5050352;28;20634;-73
2020/12/04 08:30:12;;;;;;;15.63;10.17;;;6.00;84.00;;;5.70;79.11;95537.53;5050763;28;20633;-72
2020/12/04 08:32:42;;;;;;;15.07;9.87;;;6.10;83.80;;;5.71;78.45;95523.63;5060712;28;20648;-73
2020/12/04 08:35:16;;;;;;;17.37;10.90;;;6.10;83.30;;;5.77;79.25;95533.47;5053271;28;20702;-71
2020/12/04 08:37:47;;;;;;;17.87;11.40;;;6.10;83.70;;;5.85;79.25;95529.25;5069202;28;20595;-71
2020/12/04 08:40:24;;;;;;;19.07;11.93;;;6.20;84.30;;;5.99;78.39;95496.94;5054853;28;20663;-71
2020/12/04 08:42:54;;;;;;;18.73;11.90;;;6.30;83.50;;;5.90;77.93;95500.38;5052242;28;20714;-72
2020/12/04 08:45:27;;;;;;;28.93;16.13;;;6.30;82.20;;;5.83;78.30;95491.53;5068269;28;20631;-72
2020/12/04 08:48:07;;;;;;;22.30;13.50;;;6.20;82.50;;;5.81;77.92;95489.09;5061230;28;20635;-70
2020/12/04 08:50:45;;;;;;;27.50;14.67;;;6.20;82.30;;;5.71;77.55;95482.28;5035821;28;21016;-69
2020/12/04 08:53:14;;;;;;;22.33;13.90;;;6.10;82.00;;;5.65;77.58;95473.34;5057769;28;20658;-70
2020/12/04 08:55:46;;;;;;;19.97;12.10;;;6.00;82.40;;;5.71;78.32;95467.59;5069698;28;20643;-70
2020/12/04 08:58:15;;;;;;;15.57;10.70;;;6.00;83.00;;;5.80;78.77;95471.13;5070362;28;20681;-69
2020/12/04 09:00:43;;;;;;;16.70;9.87;;;6.10;83.30;;;5.84;78.07;95462.16;5063466;28;21183;-71
2020/12/04 09:03:12;;;;;;;20.23;11.97;;;6.20;82.80;;;5.95;78.73;95456.78;5061270;28;20623;-71
2020/12/04 09:05:40;;;;;;;20.90;12.63;;;6.30;83.80;;;6.06;79.37;95454.88;5055820;28;21061;-71
2020/12/04 09:08:08;;;;;;;15.23;10.43;;;6.40;84.50;;;6.14;78.60;95454.94;5062899;28;20729;-69
2020/12/04 09:10:38;;;;;;;13.87;9.10;;;6.50;84.00;;;6.19;78.38;95455.34;5063677;28;20631;-72
2020/12/04 09:13:07;;;;;;;15.80;10.30;;;6.50;84.20;;;6.25;78.72;95447.00;5071054;28;20740;-69
2020/12/04 09:15:36;;;;;;;15.03;10.37;;;6.60;83.70;;;6.29;78.09;95458.69;5051753;28;20670;-69
2020/12/04 09:18:06;;;;;;;17.52;12.50;;;6.70;83.00;;;6.37;79.07;95466.56;5053632;28;20791;-70
2020/12/04 09:20:34;;;;;;;15.37;11.03;;;6.80;83.50;;;6.41;77.33;95467.91;5060441;28;20623;-70
2020/12/04 09:23:03;;;;;;;14.30;9.30;;;6.80;82.30;;;6.47;76.24;95475.09;5060054;28;20643;-69
2020/12/04 09:25:32;;;;;;;12.20;8.30;;;6.80;80.90;;;6.54;75.53;95476.13;5057011;28;20636;-69
2020/12/04 09:28:16;;;;;;;10.70;7.90;;;6.90;79.90;;;6.51;74.25;95479.00;5065403;28;20666;-70
2020/12/04 09:30:44;;;;;;;12.83;8.17;;;6.90;77.80;;;6.45;73.76;95477.81;5059160;28;20649;-69
2020/12/04 09:33:12;;;;;;;13.80;9.07;;;6.90;77.20;;;6.41;74.49;95470.50;5059213;28;20990;-70
2020/12/04 09:35:40;;;;;;;18.77;9.90;;;6.80;77.10;;;6.33;74.12;95476.38;5060085;28;20651;-69
2020/12/04 09:38:08;;;;;;;16.73;13.27;;;6.80;77.20;;;6.22;74.49;95474.00;5066568;28;20693;-69
2020/12/04 09:40:36;;;;;;;17.00;11.90;;;6.70;77.40;;;6.23;74.79;95475.59;5061158;28;20682;-70
2020/12/04 09:43:03;;;;;;;16.03;10.37;;;6.70;77.90;;;6.14;74.66;95491.97;5065033;28;20658;-70
2020/12/04 09:45:31;;;;;;;15.03;9.93;;;6.60;77.70;;;6.09;75.50;95483.84;5068435;28;20962;-69
2020/12/04 09:48:00;;;;;;;13.07;9.03;;;6.50;78.40;;;6.09;75.35;95486.41;5052001;28;20726;-70
2020/12/04 09:50:28;;;;;;;13.67;9.50;;;6.50;78.60;;;6.06;75.07;95492.81;5053271;28;20664;-70
2020/12/04 09:52:57;;;;;;;15.27;10.93;;;6.50;78.80;;;6.03;75.73;95498.28;5051550;28;20659;-69
2020/12/04 09:55:26;;;;;;;13.00;9.70;;;6.50;79.20;;;6.08;76.48;95496.09;5055348;28;20646;-69
2020/12/04 09:57:53;;;;;;;15.77;10.23;;;6.50;79.70;;;6.12;76.21;95496.50;5057798;28;20628;-70
2020/12/04 10:00:22;;;;;;;14.07;9.87;;;6.50;79.70;;;6.12;76.07;95496.50;5051605;28;20686;-69
2020/12/04 10:02:49;;;;;;;16.97;11.40;;;6.50;79.60;;;6.16;76.23;95499.59;5062612;28;20648;-71
2020/12/04 10:05:17;;;;;;;17.10;11.07;;;6.50;79.80;;;6.24;75.99;95491.94;5053528;28;20672;-69
2020/12/04 10:07:45;;;;;;;13.97;9.60;;;6.60;80.10;;;6.24;75.48;95476.41;5052187;28;20682;-70
2020/12/04 10:10:14;;;;;;;15.03;9.70;;;6.60;79.50;;;6.21;76.14;95464.59;5063127;28;20640;-69
2020/12/04 10:12:42;;;;;;;16.13;10.70;;;6.60;79.70;;;6.11;75.36;95461.22;5065579;28;20636;-71
2020/12/04 10:15:09;;;;;;;16.30;10.70;;;6.40;79.20;;;6.03;76.02;95457.72;5057867;28;20667;-69
2020/12/04 10:17:37;;;;;;;16.00;10.80;;;6.40;79.70;;;6.14;75.87;95444.59;5062450;28;20628;-71
2020/12/04 10:20:05;;;;;;;13.43;9.27;;;6.50;79.70;;;6.23;76.02;95438.56;5050896;28;20679;-70
2020/12/04 10:22:32;;;;;;;15.57;9.40;;;6.60;80.00;;;6.34;75.70;95446.94;5062155;28;21242;-72
2020/12/04 10:25:01;;;;;;;16.30;10.03;;;6.60;79.40;;;6.46;76.53;95455.34;5060424;28;20660;-70
2020/12/04 10:27:29;;;;;;;15.33;9.87;;;6.80;80.50;;;6.52;76.12;95462.53;5061102;28;20994;-69
2020/12/04 10:29:57;;;;;;;15.63;10.30;;;6.80;79.80;;;6.63;76.05;95465.72;5052486;28;20624;-69